createdAt,value
2023-04-04T00:00:25.581Z,6.93
2023-04-04T00:02:54.794Z,5.37
2023-04-04T00:05:21.302Z,5.87
2023-04-04T00:07:48.023Z,9.37
2023-04-04T00:10:15.038Z,6.20
2023-04-04T00:12:42.313Z,7.73
2023-04-04T00:15:09.285Z,7.03
2023-04-04T00:17:35.772Z,5.47
2023-04-04T00:20:04.499Z,4.87
2023-04-04T00:22:31.538Z,5.63
2023-04-04T00:24:58.151Z,4.90
2023-04-04T00:27:24.620Z,4.10
2023-04-04T00:29:51.091Z,4.43
2023-04-04T00:32:17.580Z,6.97
2023-04-04T00:34:44.070Z,4.37
2023-04-04T00:37:13.089Z,4.13
2023-04-04T00:39:39.697Z,6.23
2023-04-04T00:42:06.644Z,4.83
2023-04-04T00:44:35.704Z,4.53
2023-04-04T00:47:03.214Z,8.37
2023-04-04T00:49:29.693Z,5.73
2023-04-04T00:51:56.889Z,5.23
2023-04-04T00:54:23.495Z,6.10
2023-04-04T00:56:55.110Z,8.90
2023-04-04T00:59:27.784Z,7.27
2023-04-04T01:01:54.417Z,6.07
2023-04-04T01:04:21.247Z,8.47
2023-04-04T01:06:47.808Z,4.47
2023-04-04T01:09:14.257Z,3.83
2023-04-04T01:11:40.815Z,8.30
2023-04-04T01:14:07.438Z,5.40
2023-04-04T01:16:35.943Z,6.50
2023-04-04T01:19:02.969Z,6.57
2023-04-04T01:21:29.663Z,4.57
2023-04-04T01:24:01.347Z,6.43
2023-04-04T01:26:28.954Z,7.23
2023-04-04T01:28:56.461Z,4.60
2023-04-04T01:31:44.136Z,6.90
2023-04-04T01:34:38.070Z,6.30
2023-04-04T01:37:23.248Z,6.70
2023-04-04T01:39:54.060Z,7.57
2023-04-04T01:42:20.559Z,8.43
2023-04-04T01:44:47.300Z,7.57
2023-04-04T01:47:13.804Z,4.80
2023-04-04T01:49:40.885Z,7.87
2023-04-04T01:52:07.432Z,7.17
2023-04-04T01:54:35.918Z,6.10
2023-04-04T01:57:02.618Z,6.93
2023-04-04T01:59:29.310Z,6.37
2023-04-04T02:01:56.267Z,6.43
2023-04-04T02:04:23.227Z,6.53
2023-04-04T02:06:50.334Z,7.97
2023-04-04T02:09:16.847Z,5.20
2023-04-04T02:11:43.310Z,6.43
2023-04-04T02:14:09.852Z,6.23
2023-04-04T02:16:36.328Z,7.57
2023-04-04T02:19:02.935Z,9.17
2023-04-04T02:21:29.394Z,6.57
2023-04-04T02:23:55.828Z,7.17
2023-04-04T02:26:22.511Z,6.40
2023-04-04T02:28:48.971Z,8.53
2023-04-04T02:31:15.793Z,6.27
2023-04-04T02:33:42.284Z,6.20
2023-04-04T02:36:09.107Z,4.80
2023-04-04T02:38:35.552Z,4.43
2023-04-04T02:41:02.044Z,4.07
2023-04-04T02:43:28.479Z,3.87
2023-04-04T02:45:55.003Z,5.70
2023-04-04T02:48:21.477Z,6.30
2023-04-04T02:50:48.090Z,7.33
2023-04-04T02:53:14.614Z,6.87
2023-04-04T02:55:41.107Z,6.97
2023-04-04T02:58:07.648Z,3.73
2023-04-04T03:00:34.114Z,7.37
2023-04-04T03:03:00.683Z,6.70
2023-04-04T03:05:28.375Z,5.20
2023-04-04T03:07:58.265Z,7.27
2023-04-04T03:10:25.803Z,6.87
2023-04-04T03:12:52.339Z,6.53
2023-04-04T03:15:19.568Z,6.60
2023-04-04T03:17:46.740Z,6.23
2023-04-04T03:20:15.123Z,5.90
2023-04-04T03:22:42.213Z,7.37
2023-04-04T03:25:09.370Z,6.20
2023-04-04T03:27:35.910Z,3.60
2023-04-04T03:30:02.846Z,5.07
2023-04-04T03:32:29.802Z,4.93
2023-04-04T03:34:56.542Z,6.17
2023-04-04T03:37:23.274Z,6.93
2023-04-04T03:39:49.743Z,7.03
2023-04-04T03:42:16.838Z,6.97
2023-04-04T03:44:43.289Z,4.77
2023-04-04T03:47:09.803Z,6.80
2023-04-04T03:49:36.309Z,4.27
2023-04-04T03:52:03.287Z,6.33
2023-04-04T03:54:29.745Z,4.73
2023-04-04T03:56:57.078Z,7.23
2023-04-04T03:59:23.775Z,8.00
2023-04-04T04:01:50.695Z,8.27
2023-04-04T04:04:17.179Z,4.03
2023-04-04T04:06:44.115Z,4.93
2023-04-04T04:09:12.296Z,5.77
2023-04-04T04:11:38.828Z,6.13
2023-04-04T04:14:05.441Z,4.70
2023-04-04T04:16:33.023Z,4.50
2023-04-04T04:18:59.730Z,6.70
2023-04-04T04:21:26.262Z,5.50
2023-04-04T04:23:52.771Z,6.80
2023-04-04T04:26:19.299Z,5.23
2023-04-04T04:28:48.188Z,6.77
2023-04-04T04:31:14.856Z,5.77
2023-04-04T04:33:41.590Z,5.30
2023-04-04T04:36:08.318Z,5.60
2023-04-04T04:38:34.845Z,8.90
2023-04-04T04:41:01.907Z,5.93
2023-04-04T04:43:28.385Z,5.97
2023-04-04T04:45:54.980Z,4.23
2023-04-04T04:48:21.508Z,6.97
2023-04-04T04:50:48.387Z,7.43
2023-04-04T04:53:14.972Z,5.07
2023-04-04T04:55:43.167Z,8.77
2023-04-04T04:58:10.838Z,7.00
2023-04-04T05:00:38.306Z,5.10
2023-04-04T05:03:07.990Z,5.63
2023-04-04T05:05:34.779Z,7.73
2023-04-04T05:08:02.755Z,5.77
2023-04-04T05:10:30.040Z,7.27
2023-04-04T05:12:56.636Z,6.67
2023-04-04T05:15:23.287Z,10.23
2023-04-04T05:17:49.868Z,10.00
2023-04-04T05:20:16.359Z,11.13
2023-04-04T05:22:46.520Z,7.73
2023-04-04T05:25:13.376Z,5.50
2023-04-04T05:27:40.721Z,5.60
2023-04-04T05:30:07.967Z,7.00
2023-04-04T05:32:34.599Z,5.73
2023-04-04T05:35:01.395Z,5.17
2023-04-04T05:37:28.128Z,5.60
2023-04-04T05:39:55.239Z,7.37
2023-04-04T05:42:21.964Z,7.80
2023-04-04T05:44:48.483Z,7.27
2023-04-04T05:47:14.996Z,7.17
2023-04-04T05:49:41.571Z,7.70
2023-04-04T05:52:08.186Z,6.43
2023-04-04T05:54:34.680Z,4.33
2023-04-04T05:57:01.132Z,7.17
2023-04-04T05:59:28.695Z,5.00
2023-04-04T06:01:55.278Z,4.30
2023-04-04T06:04:21.810Z,7.83
2023-04-04T06:06:48.300Z,6.47
2023-04-04T06:09:14.784Z,6.40
2023-04-04T06:11:41.404Z,6.80
2023-04-04T06:14:08.749Z,5.80
2023-04-04T06:16:35.926Z,6.23
2023-04-04T06:19:02.894Z,4.10
2023-04-04T06:21:29.446Z,4.63
2023-04-04T06:23:55.925Z,8.17
2023-04-04T06:26:22.399Z,6.93
2023-04-04T06:28:49.816Z,8.13
2023-04-04T06:31:17.178Z,4.57
2023-04-04T06:33:43.905Z,7.63
2023-04-04T06:36:10.466Z,6.03
2023-04-04T06:38:37.022Z,5.33
2023-04-04T06:41:03.516Z,7.83
2023-04-04T06:43:30.975Z,6.43
2023-04-04T06:45:57.597Z,4.80
2023-04-04T06:48:24.057Z,6.53
2023-04-04T06:50:50.499Z,5.67
2023-04-04T06:53:17.260Z,5.80
2023-04-04T06:55:43.748Z,7.03
2023-04-04T06:58:10.510Z,5.23
2023-04-04T07:00:37.169Z,5.70
2023-04-04T07:03:04.087Z,5.00
2023-04-04T07:05:32.245Z,6.43
2023-04-04T07:07:58.849Z,6.47
2023-04-04T07:10:27.536Z,7.90
2023-04-04T07:12:53.997Z,4.83
2023-04-04T07:15:20.478Z,7.77
2023-04-04T07:17:47.283Z,6.17
2023-04-04T07:20:13.915Z,5.47
2023-04-04T07:22:41.405Z,4.70
2023-04-04T07:25:08.791Z,6.00
2023-04-04T07:27:36.076Z,4.70
2023-04-04T07:30:04.309Z,5.23
2023-04-04T07:32:31.138Z,4.83
2023-04-04T07:34:58.026Z,6.83
2023-04-04T07:37:26.614Z,6.20
2023-04-04T07:39:53.200Z,9.77
2023-04-04T07:42:23.246Z,7.67
2023-04-04T07:44:50.577Z,9.50
2023-04-04T07:47:17.717Z,7.67
2023-04-04T07:49:44.895Z,7.53
2023-04-04T07:52:11.383Z,8.63
2023-04-04T07:54:38.099Z,4.37
2023-04-04T07:57:09.770Z,6.40
2023-04-04T07:59:37.234Z,5.83
2023-04-04T08:02:03.854Z,5.33
2023-04-04T08:04:30.709Z,7.67
2023-04-04T08:06:57.578Z,4.57
2023-04-04T08:09:24.957Z,5.80
2023-04-04T08:11:51.688Z,3.93
2023-04-04T08:14:18.228Z,4.53
2023-04-04T08:16:44.681Z,3.77
2023-04-04T08:19:11.510Z,6.83
2023-04-04T08:21:38.159Z,5.40
2023-04-04T08:24:05.108Z,5.63
2023-04-04T08:26:31.978Z,4.90
2023-04-04T08:28:58.627Z,6.40
2023-04-04T08:31:25.191Z,4.97
2023-04-04T08:33:52.507Z,4.20
2023-04-04T08:36:19.693Z,3.37
2023-04-04T08:38:46.156Z,4.17
2023-04-04T08:41:13.413Z,8.23
2023-04-04T08:43:41.620Z,3.73
2023-04-04T08:46:11.526Z,5.57
2023-04-04T08:48:39.366Z,6.93
2023-04-04T08:51:09.194Z,2.70
2023-04-04T08:53:37.172Z,3.13
2023-04-04T08:56:04.523Z,4.17
2023-04-04T08:58:31.171Z,5.07
2023-04-04T09:00:57.743Z,3.23
2023-04-04T09:03:26.708Z,5.17
2023-04-04T09:05:56.680Z,2.87
2023-04-04T09:08:26.123Z,5.53
2023-04-04T09:10:53.186Z,12.13
2023-04-04T09:13:19.959Z,11.47
2023-04-04T09:15:52.292Z,6.23
2023-04-04T09:18:19.104Z,4.17
2023-04-04T09:20:48.950Z,3.67
2023-04-04T09:23:23.858Z,3.10
2023-04-04T09:28:24.632Z,2.83
2023-04-04T09:30:52.194Z,3.53
2023-04-04T09:33:21.602Z,2.90
2023-04-04T09:35:54.631Z,3.20
2023-04-04T09:38:23.737Z,4.33
2023-04-04T09:40:52.643Z,4.47
2023-04-04T09:43:19.576Z,3.30
2023-04-04T09:45:46.343Z,2.93
2023-04-04T09:48:13.670Z,3.50
2023-04-04T09:50:49.603Z,3.63
2023-04-04T09:53:19.394Z,3.80
2023-04-04T09:55:54.287Z,3.17
2023-04-04T09:58:29.005Z,3.07
2023-04-04T10:00:57.477Z,2.23
2023-04-04T10:03:24.423Z,2.97
2023-04-04T10:06:00.266Z,3.00
2023-04-04T10:08:28.503Z,2.00
2023-04-04T10:11:11.391Z,2.13
2023-04-04T10:13:43.776Z,3.30
2023-04-04T10:16:11.153Z,2.30
2023-04-04T10:18:38.123Z,3.37
2023-04-04T10:23:37.037Z,2.33
2023-04-04T10:26:03.521Z,3.27
2023-04-04T10:28:30.085Z,2.90
2023-04-04T10:31:07.112Z,2.87
2023-04-04T10:34:12.464Z,3.80
2023-04-04T10:36:47.209Z,2.17
2023-04-04T10:39:17.611Z,3.03
2023-04-04T10:41:46.259Z,3.10
2023-04-04T10:44:20.984Z,2.40
2023-04-04T10:46:51.040Z,3.90
2023-04-04T10:49:18.127Z,3.10
2023-04-04T10:51:54.851Z,2.87
2023-04-04T10:54:23.500Z,2.27
2023-04-04T10:56:50.182Z,4.03
2023-04-04T10:59:20.197Z,2.10
2023-04-04T11:01:55.052Z,1.73
2023-04-04T11:04:31.092Z,1.53
2023-04-04T11:07:05.271Z,3.33
2023-04-04T11:09:54.170Z,2.57
2023-04-04T11:12:23.985Z,2.87
2023-04-04T11:15:11.467Z,2.27
2023-04-04T11:17:43.632Z,1.60
2023-04-04T11:20:11.706Z,1.70
2023-04-04T11:22:42.735Z,2.63
2023-04-04T11:25:24.918Z,2.27
2023-04-04T11:27:54.972Z,1.63
2023-04-04T11:30:21.559Z,2.83
2023-04-04T11:32:59.762Z,2.87
2023-04-04T11:35:30.636Z,2.07
2023-04-04T11:37:57.060Z,3.97
2023-04-04T11:40:41.685Z,2.37
2023-04-04T11:43:12.092Z,2.17
2023-04-04T11:45:44.558Z,2.37
2023-04-04T11:48:11.222Z,2.10
2023-04-04T11:50:43.459Z,2.30
2023-04-04T11:53:11.319Z,2.50
2023-04-04T11:55:47.257Z,2.80
2023-04-04T11:58:16.137Z,3.10
2023-04-04T12:00:44.197Z,2.50
2023-04-04T12:03:12.341Z,2.03
2023-04-04T12:05:40.342Z,2.20
2023-04-04T12:08:08.761Z,3.13
2023-04-04T12:10:36.242Z,1.60
2023-04-04T12:13:07.276Z,2.40
2023-04-04T12:15:37.892Z,2.80
2023-04-04T12:18:07.550Z,4.50
2023-04-04T12:20:34.195Z,2.70
2023-04-04T12:23:00.868Z,3.57
2023-04-04T12:25:28.549Z,2.20
2023-04-04T12:27:55.588Z,2.97
2023-04-04T12:30:22.305Z,2.40
2023-04-04T12:32:50.165Z,1.80
2023-04-04T12:35:17.100Z,3.27
2023-04-04T12:37:58.882Z,2.27
2023-04-04T12:40:30.436Z,3.87
2023-04-04T12:42:57.342Z,3.03
2023-04-04T12:45:26.236Z,2.00
2023-04-04T12:47:54.195Z,2.90
2023-04-04T12:50:27.404Z,2.17
2023-04-04T12:52:57.433Z,3.40
2023-04-04T12:55:31.559Z,3.77
2023-04-04T12:58:00.858Z,4.07
2023-04-04T13:00:27.534Z,2.10
2023-04-04T13:02:55.872Z,2.40
2023-04-04T13:05:25.798Z,4.83
2023-04-04T13:08:05.514Z,2.97
2023-04-04T13:10:57.754Z,3.47
2023-04-04T13:14:00.639Z,1.87
2023-04-04T13:16:33.105Z,2.33
2023-04-04T13:18:59.726Z,3.83
2023-04-04T13:21:26.287Z,1.70
2023-04-04T13:23:52.972Z,3.03
2023-04-04T13:26:19.458Z,2.13
2023-04-04T13:28:46.174Z,2.73
2023-04-04T13:31:13.468Z,3.20
2023-04-04T13:33:40.286Z,2.53
2023-04-04T13:36:07.015Z,2.67
2023-04-04T13:38:33.581Z,3.30
2023-04-04T13:41:00.710Z,2.87
2023-04-04T13:43:27.760Z,1.57
2023-04-04T13:45:55.752Z,2.07
2023-04-04T13:48:22.800Z,2.33
2023-04-04T13:50:53.256Z,2.43
2023-04-04T13:53:20.159Z,2.50
2023-04-04T13:56:12.973Z,3.77
2023-04-04T13:58:33.305Z,3.50
2023-04-04T14:01:03.451Z,2.60
2023-04-04T14:03:31.442Z,3.60
2023-04-04T14:06:00.337Z,2.30
2023-04-04T14:08:31.034Z,2.50
2023-04-04T14:10:57.706Z,2.33
2023-04-04T14:13:24.162Z,3.43
2023-04-04T14:15:50.978Z,3.80
2023-04-04T14:18:17.496Z,2.03
2023-04-04T14:20:44.126Z,2.10
2023-04-04T14:23:10.747Z,2.50
2023-04-04T14:25:37.208Z,2.07
2023-04-04T14:28:03.857Z,2.17
2023-04-04T14:30:30.532Z,3.70
2023-04-04T14:32:57.037Z,1.57
2023-04-04T14:35:23.627Z,2.23
2023-04-04T14:37:50.101Z,3.70
2023-04-04T14:40:16.789Z,15.73
2023-04-04T14:42:43.249Z,3.37
2023-04-04T14:45:11.355Z,20.70
2023-04-04T14:47:37.972Z,3.27
2023-04-04T14:50:04.937Z,2.67
2023-04-04T14:52:31.672Z,2.97
2023-04-04T14:54:58.271Z,2.03
2023-04-04T14:57:24.929Z,3.77
2023-04-04T14:59:51.450Z,3.63
2023-04-04T15:02:18.284Z,4.50
2023-04-04T15:04:44.909Z,2.97
2023-04-04T15:07:11.498Z,3.07
2023-04-04T15:09:37.946Z,2.97
2023-04-04T15:12:06.701Z,3.70
2023-04-04T15:14:33.202Z,2.50
2023-04-04T15:16:59.960Z,5.30
2023-04-04T15:19:26.407Z,4.67
2023-04-04T15:21:53.322Z,3.83
2023-04-04T15:24:19.746Z,4.20
2023-04-04T15:26:46.492Z,3.33
2023-04-04T15:29:14.650Z,2.00
2023-04-04T15:31:41.504Z,2.93
2023-04-04T15:34:09.498Z,2.97
2023-04-04T15:36:36.551Z,3.93
2023-04-04T15:39:03.523Z,3.37
2023-04-04T15:41:30.161Z,2.83
2023-04-04T15:43:56.646Z,2.97
2023-04-04T15:46:23.226Z,3.03
2023-04-04T15:48:52.054Z,2.80
2023-04-04T15:51:18.666Z,2.10
2023-04-04T15:53:45.161Z,4.17
2023-04-04T15:56:11.860Z,3.10
2023-04-04T15:58:38.314Z,2.50
2023-04-04T16:01:06.598Z,4.23
2023-04-04T16:03:33.148Z,2.87
2023-04-04T16:06:00.759Z,4.03
2023-04-04T16:08:27.234Z,3.83
2023-04-04T16:10:53.762Z,3.33
2023-04-04T16:13:20.446Z,4.50
2023-04-04T16:15:50.184Z,3.27
2023-04-04T16:18:16.676Z,2.20
2023-04-04T16:20:43.138Z,2.57
2023-04-04T16:23:09.645Z,3.30
2023-04-04T16:25:36.386Z,4.23
2023-04-04T16:28:03.938Z,5.57
2023-04-04T16:30:30.430Z,3.07
2023-04-04T16:32:56.950Z,3.73
2023-04-04T16:35:23.516Z,4.20
2023-04-04T16:37:49.991Z,2.70
2023-04-04T16:40:16.618Z,3.03
2023-04-04T16:42:43.073Z,2.63
2023-04-04T16:45:10.365Z,3.80
2023-04-04T16:47:37.061Z,3.97
2023-04-04T16:50:04.869Z,5.73
2023-04-04T16:52:31.368Z,2.70
2023-04-04T16:54:57.821Z,3.40
2023-04-04T16:57:24.450Z,3.87
2023-04-04T16:59:50.898Z,4.57
2023-04-04T17:02:17.481Z,2.37
2023-04-04T17:04:44.562Z,3.97
2023-04-04T17:07:11.151Z,2.13
2023-04-04T17:09:41.337Z,2.77
2023-04-04T17:12:08.195Z,1.63
2023-04-04T17:14:35.567Z,2.77
2023-04-04T17:17:02.157Z,2.20
2023-04-04T17:19:30.325Z,4.07
2023-04-04T17:21:58.206Z,4.80
2023-04-04T17:24:25.618Z,2.80
2023-04-04T17:26:52.385Z,3.37
2023-04-04T17:29:18.967Z,3.37
2023-04-04T17:31:48.960Z,3.67
2023-04-04T17:34:16.190Z,4.97
2023-04-04T17:36:42.968Z,4.30
2023-04-04T17:39:09.596Z,4.03
2023-04-04T17:41:36.298Z,5.80
2023-04-04T17:44:03.768Z,7.27
2023-04-04T17:46:31.326Z,5.00
2023-04-04T17:48:57.857Z,6.40
2023-04-04T17:51:24.342Z,6.90
2023-04-04T17:53:51.254Z,4.13
2023-04-04T17:56:18.826Z,6.20
2023-04-04T17:58:45.759Z,5.83
2023-04-04T18:01:13.767Z,8.90
2023-04-04T18:03:40.554Z,8.33
2023-04-04T18:06:07.167Z,8.10
2023-04-04T18:08:33.610Z,6.43
2023-04-04T18:11:00.146Z,6.47
2023-04-04T18:13:26.707Z,10.07
2023-04-04T18:15:53.343Z,4.87
2023-04-04T18:18:21.309Z,4.87
2023-04-04T18:20:48.278Z,5.67
2023-04-04T18:23:16.798Z,5.83
2023-04-04T18:25:43.304Z,10.30
2023-04-04T18:28:11.631Z,13.50
2023-04-04T18:30:39.072Z,15.50
2023-04-04T18:33:06.448Z,11.60
2023-04-04T18:35:33.042Z,13.77
2023-04-04T18:38:03.003Z,9.10
2023-04-04T18:40:29.540Z,9.57
2023-04-04T18:42:56.487Z,7.80
2023-04-04T18:45:29.881Z,6.20
2023-04-04T18:48:01.393Z,7.07
2023-04-04T18:50:28.598Z,7.27
2023-04-04T18:52:56.801Z,7.90
2023-04-04T18:55:23.278Z,8.03
2023-04-04T18:57:49.815Z,8.63
2023-04-04T19:00:16.657Z,10.20
2023-04-04T19:02:43.203Z,10.13
2023-04-04T19:05:12.316Z,17.70
2023-04-04T19:07:40.275Z,20.87
2023-04-04T19:10:07.407Z,24.07
2023-04-04T19:12:34.058Z,19.93
2023-04-04T19:15:01.363Z,18.50
2023-04-04T19:17:27.980Z,16.70
2023-04-04T19:19:54.425Z,13.50
2023-04-04T19:22:20.851Z,13.57
2023-04-04T19:24:47.316Z,12.43
2023-04-04T19:27:13.790Z,15.93
2023-04-04T19:29:40.414Z,16.67
2023-04-04T19:32:13.872Z,13.23
2023-04-04T19:34:42.610Z,14.40
2023-04-04T19:37:13.303Z,14.83
2023-04-04T19:39:42.187Z,13.83
2023-04-04T19:42:09.325Z,13.20
2023-04-04T19:44:42.866Z,16.50
2023-04-04T19:47:10.538Z,13.53
2023-04-04T19:49:38.182Z,11.23
2023-04-04T19:52:05.737Z,12.13
2023-04-04T19:54:42.951Z,11.93
2023-04-04T19:57:17.547Z,11.77
2023-04-04T20:00:13.578Z,13.13
2023-04-04T20:02:51.466Z,11.87
2023-04-04T20:05:41.541Z,10.80
2023-04-04T20:08:09.671Z,11.53
2023-04-04T20:10:38.285Z,11.20
2023-04-04T20:13:08.527Z,13.23
2023-04-04T20:15:47.665Z,11.43
2023-04-04T20:18:24.467Z,12.40
2023-04-04T20:21:07.207Z,12.53
2023-04-04T20:23:49.569Z,11.27
2023-04-04T20:26:35.100Z,11.97
2023-04-04T20:29:12.040Z,12.90
2023-04-04T20:31:45.559Z,14.67
2023-04-04T20:34:41.379Z,13.50
2023-04-04T20:37:26.613Z,14.67
2023-04-04T20:40:01.127Z,13.67
2023-04-04T20:42:31.057Z,12.23
2023-04-04T20:45:10.282Z,12.67
2023-04-04T20:47:45.757Z,13.73
2023-04-04T20:50:18.487Z,12.83
2023-04-04T20:52:59.719Z,12.83
2023-04-04T20:55:28.421Z,12.17
2023-04-04T20:58:34.343Z,16.03
2023-04-04T21:01:05.522Z,13.30
2023-04-04T21:03:35.621Z,15.50
2023-04-04T21:06:11.566Z,15.03
2023-04-04T21:08:49.746Z,16.93
2023-04-04T21:11:30.212Z,16.13
2023-04-04T21:13:57.847Z,17.80
2023-04-04T21:16:26.648Z,17.83
2023-04-04T21:18:57.915Z,16.93
2023-04-04T21:21:24.386Z,14.90
2023-04-04T21:23:55.501Z,14.53
2023-04-04T21:26:28.806Z,14.67
2023-04-04T21:28:56.916Z,13.77
2023-04-04T21:31:26.223Z,13.40
2023-04-04T21:33:54.698Z,13.07
2023-04-04T21:36:24.121Z,12.93
2023-04-04T21:38:52.138Z,14.23
2023-04-04T21:41:25.869Z,15.07
2023-04-04T21:43:57.138Z,13.33
2023-04-04T21:46:25.731Z,13.43
2023-04-04T21:48:53.157Z,13.80
2023-04-04T21:51:19.864Z,12.77
2023-04-04T21:53:46.786Z,13.80
2023-04-04T21:56:13.996Z,13.17
2023-04-04T21:58:41.200Z,13.43
2023-04-04T22:01:08.158Z,13.50
2023-04-04T22:03:34.902Z,14.97
2023-04-04T22:06:01.375Z,11.70
2023-04-04T22:08:27.945Z,12.17
2023-04-04T22:10:54.486Z,10.37
2023-04-04T22:13:22.678Z,10.77
2023-04-04T22:15:49.816Z,12.47
2023-04-04T22:18:16.949Z,11.20
2023-04-04T22:20:47.662Z,10.93
2023-04-04T22:23:15.601Z,10.90
2023-04-04T22:25:42.164Z,11.20
2023-04-04T22:28:09.179Z,18.07
2023-04-04T22:30:38.787Z,12.87
2023-04-04T22:33:05.825Z,12.73
2023-04-04T22:35:32.908Z,18.40
2023-04-04T22:38:00.820Z,12.00
2023-04-04T22:40:30.709Z,14.17
2023-04-04T22:42:57.540Z,11.97
2023-04-04T22:45:24.667Z,12.37
2023-04-04T22:47:51.424Z,10.93
2023-04-04T22:50:24.490Z,11.90
2023-04-04T22:52:52.412Z,12.40
2023-04-04T22:55:20.844Z,9.63
2023-04-04T22:57:47.349Z,11.23
2023-04-04T23:00:14.719Z,10.57
2023-04-04T23:02:43.187Z,14.43
2023-04-04T23:05:11.332Z,11.20
2023-04-04T23:07:38.483Z,10.40
2023-04-04T23:10:06.375Z,8.80
2023-04-04T23:12:32.877Z,9.83
2023-04-04T23:15:01.502Z,9.73
2023-04-04T23:17:28.121Z,11.60
2023-04-04T23:19:55.110Z,9.63
2023-04-04T23:22:21.761Z,10.20
2023-04-04T23:24:48.558Z,9.13
2023-04-04T23:27:16.013Z,11.90
2023-04-04T23:29:42.953Z,11.10
2023-04-04T23:32:10.303Z,11.67
2023-04-04T23:34:37.818Z,10.77
2023-04-04T23:37:05.026Z,9.97
2023-04-04T23:39:31.811Z,13.93
2023-04-04T23:42:01.150Z,10.93
2023-04-04T23:44:27.650Z,11.10
2023-04-04T23:46:54.274Z,10.20
2023-04-04T23:49:20.805Z,10.80
2023-04-04T23:51:47.332Z,9.47
2023-04-04T23:54:13.810Z,10.57
2023-04-04T23:56:40.782Z,12.27
2023-04-04T23:59:07.457Z,10.13
